Latest Coastal Weather Observations for Dunalley

IDT60701

Issued at 12:45 am EST Thursday 21 August 2014 (issued every 10 minutes, with the page automatically refreshed every 10 minutes)

About coastal observations | Map of coastal stations | Coastal observations for TAS | Marine services | Other Formats
Station Details ID: 094254 Name: DUNALLEY (STROUD POINT) Lat: -42.90 Lon: 147.79 Height: 12.43 m
Data from the previous 72 hours. | See also: Recent months at Dunalley
Date/Time
EST
Temp

°C
Wind Pressure Rain
since 9am
mm
Weather Cloud Vis
km
Sea
Height
m
Swell
Dir
 
Speed
knots
Gust
knots
hPa Trend Height
m
Period
s
Dir
21/12:30am 7.7 WSW 0 1 1030.8 - 0.0 - - - - - - -
21/12:00am 7.5 WSW 0 0 1030.8 - 0.0 - - - - - - -
 
Date/Time
EST
Temp

°C
Wind Pressure Rain
since 9am
mm
Weather Cloud Vis
km
Sea
Height
m
Swell
Dir
 
Speed
knots
Gust
knots
hPa Trend Height
m
Period
s
Dir
20/11:30pm 7.4 CALM 0 1 1030.7 - 0.0 - - - - - - -
20/11:00pm 7.2 WSW 2 3 1030.5 - 0.0 - - - - - - -
20/10:30pm 7.3 WSW 2 3 1030.5 - 0.0 - - - - - - -
20/10:00pm 6.7 WSW 1 2 1030.3 - 0.0 - - - - - - -
20/09:30pm 6.8 CALM 0 0 1030.2 - 0.0 - - - - - - -
20/09:00pm 8.1 CALM 0 0 1029.9 - 0.0 - - - - - - -
20/08:30pm 9.0 CALM 0 0 1029.6 - 0.0 - - - - - - -
20/08:00pm 9.3 CALM 0 0 1029.4 - 0.0 - - - - - - -
20/07:30pm 9.3 CALM 0 0 1029.1 - 0.0 - - - - - - -
20/07:00pm 9.1 CALM 0 1 1029.0 - 0.0 - - - - - - -
20/06:30pm 8.9 WSW 2 4 1028.6 - 0.0 - - - - - - -
20/06:00pm 9.3 WSW 4 6 1028.3 - 0.0 - - - - - - -
20/05:30pm 9.6 WSW 4 4 1027.9 - 0.0 - - - - - - -
20/05:00pm 10.5 WSW 3 4 1027.7 - 0.0 - - - - - - -
20/04:30pm 11.7 WSW 5 7 1027.4 - 0.0 - - - - - - -
20/04:00pm 12.3 WSW 2 2 1027.2 - 0.0 - - - - - - -
20/03:30pm 12.0 WSW 3 5 1026.9 - 0.0 - - - - - - -
20/03:00pm 12.4 WSW 5 7 1026.8 - 0.0 - - - - - - -
20/02:30pm 13.0 W 6 8 1026.6 - 0.0 - - - - - - -
20/02:00pm 12.9 W 7 8 1026.5 - 0.0 - - - - - - -
20/01:30pm 12.7 W 8 10 1026.2 - 0.0 - - - - - - -
20/01:00pm 12.3 W 9 11 1026.3 - 0.0 - - - - - - -
20/12:30pm 12.1 W 8 11 1026.4 - 0.0 - - - - - - -
20/12:00pm 12.2 W 8 10 1026.6 - 0.0 - - - - - - -
20/11:30am 11.4 W 9 11 1026.8 - 0.0 - - - - - - -
20/11:00am 11.5 W 9 11 1026.8 - 0.0 - - - - - - -
20/10:30am 10.4 W 8 12 1026.7 - 0.0 - - - - - - -
20/10:00am 10.8 W 7 10 1026.6 - 0.0 - - - - - - -
20/09:30am 10.2 WNW 8 12 1026.3 - 0.0 - - - - - - -
20/09:00am 9.5 NW 9 12 1026.1 - 0.0 - - - - - - -
20/08:30am 8.8 WNW 9 12 1025.8 - 0.0 - - - - - - -
20/08:00am 7.4 NW 7 10 1025.7 - 0.0 - - - - - - -
20/07:30am 7.2 NW 9 12 1025.3 - 0.0 - - - - - - -
20/07:00am 6.8 WNW 9 11 1025.0 - 0.0 - - - - - - -
20/06:30am 6.7 WNW 10 13 1024.6 - 0.0 - - - - - - -
20/06:00am 6.9 WNW 9 12 1024.4 - 0.0 - - - - - - -
20/05:30am 6.8 WNW 8 11 1024.3 - 0.0 - - - - - - -
20/05:00am 6.5 WNW 8 11 1024.2 - 0.0 - - - - - - -
20/04:30am 6.5 WNW 7 9 1024.0 - 0.0 - - - - - - -
20/04:00am 6.5 WNW 8 10 1024.1 - 0.0 - - - - - - -
20/03:30am 6.8 WNW 9 12 1024.0 - 0.0 - - - - - - -
20/03:00am 6.8 WNW 9 11 1024.0 - 0.0 - - - - - - -
20/02:30am 6.9 NW 8 11 1023.9 - 0.0 - - - - - - -
20/02:00am 6.9 NW 7 9 1024.2 - 0.0 - - - - - - -
20/01:30am 7.0 WNW 7 10 1024.0 - 0.0 - - - - - - -
20/01:00am 6.4 W 1 2 1024.0 - 0.0 - - - - - - -
20/12:30am 6.7 W 1 3 1023.9 - 0.0 - - - - - - -
20/12:00am 6.9 CALM 0 1 1024.1 - 0.0 - - - - - - -
 
Date/Time
EST
Temp

°C
Wind Pressure Rain
since 9am
mm
Weather Cloud Vis
km
Sea
Height
m
Swell
Dir
 
Speed
knots
Gust
knots
hPa Trend Height
m
Period
s
Dir
19/11:30pm 6.8 W 5 6 1023.9 - 0.0 - - - - - - -
19/11:00pm 7.2 W 5 7 1023.8 - 0.0 - - - - - - -
19/10:30pm 7.1 W 6 7 1023.7 - 0.0 - - - - - - -
19/10:00pm 8.8 WSW 8 10 1023.8 - 0.0 - - - - - - -
19/09:30pm 7.8 W 5 6 1023.8 - 0.0 - - - - - - -
19/09:00pm 9.0 W 7 10 1023.8 - 0.0 - - - - - - -
19/08:30pm 9.2 WSW 5 6 1023.6 - 0.0 - - - - - - -
19/08:00pm 8.7 WSW 3 4 1023.5 - 0.0 - - - - - - -
19/07:30pm 8.8 WSW 3 4 1023.1 - 0.0 - - - - - - -
19/07:00pm 9.3 WSW 5 6 1023.0 - 0.0 - - - - - - -
19/06:30pm 9.5 WSW 5 6 1022.6 - 0.0 - - - - - - -
19/06:00pm 9.9 WSW 4 6 1022.4 - 0.0 - - - - - - -
19/05:30pm 10.4 CALM 0 2 1022.1 - 0.0 - - - - - - -
19/05:00pm 10.5 WSW 1 3 1022.1 - 0.0 - - - - - - -
19/04:30pm 10.9 CALM 0 3 1021.9 - 0.0 - - - - - - -
19/04:00pm 10.8 WSW 1 3 1021.9 - 0.0 - - - - - - -
19/03:30pm 11.0 WSW 2 3 1021.8 - 0.0 - - - - - - -
19/03:00pm 11.1 WSW 3 5 1021.9 - 0.0 - - - - - - -
19/02:30pm 11.4 WSW 7 8 1021.8 - 0.0 - - - - - - -
19/02:00pm 11.7 WSW 6 8 1021.8 - 0.0 - - - - - - -
19/01:30pm 12.5 W 6 8 1021.9 - 0.0 - - - - - - -
19/01:00pm 11.6 WSW 7 9 1022.3 - 0.0 - - - - - - -
19/12:30pm 12.6 W 7 9 1022.5 - 0.0 - - - - - - -
19/12:00pm 12.5 W 7 10 1022.9 - 0.0 - - - - - - -
19/11:30am 11.0 WSW 7 10 1023.3 - 0.0 - - - - - - -
19/11:00am 10.2 WSW 5 7 1023.7 - 0.0 - - - - - - -
19/10:30am 9.1 WSW 4 5 1023.7 - 0.0 - - - - - - -
19/10:00am 8.7 WSW 2 3 1024.0 - 0.0 - - - - - - -
19/09:30am 7.8 WSW 3 4 1024.1 - 0.0 - - - - - - -
19/09:00am 7.9 WSW 4 5 1024.4 - 0.0 - - - - - - -
19/08:30am 7.6 WSW 5 9 1024.3 - 0.0 - - - - - - -
19/08:00am 6.4 S 3 7 1024.1 - 0.0 - - - - - - -
19/07:30am 5.7 S 3 4 1023.8 - 0.0 - - - - - - -
19/07:00am 5.4 S 1 2 1023.8 - 0.0 - - - - - - -
19/06:30am 5.3 S 2 3 1023.6 - 0.0 - - - - - - -
19/06:00am 4.5 S 3 4 1023.4 - 0.0 - - - - - - -
19/05:30am 5.8 S 1 2 1023.3 - 0.0 - - - - - - -
19/05:00am 6.0 S 5 6 1023.4 - 0.0 - - - - - - -
19/04:30am 6.0 S 4 5 1023.3 - 0.0 - - - - - - -
19/04:00am 6.0 S 4 5 1023.5 - 0.0 - - - - - - -
19/03:30am 5.9 S 2 4 1023.3 - 0.0 - - - - - - -
19/03:00am 6.3 S 2 5 1023.5 - 0.0 - - - - - - -
19/02:30am 5.5 S 1 2 1023.6 - 0.0 - - - - - - -
19/02:00am 6.0 S 2 3 1023.8 - 0.0 - - - - - - -
19/01:30am 6.0 CALM 0 0 1023.9 - 0.0 - - - - - - -
19/01:00am 6.3 CALM 0 0 1024.1 - 0.0 - - - - - - -
19/12:30am 6.3 S 1 2 1024.2 - 0.0 - - - - - - -
19/12:00am 6.0 S 2 4 1024.2 - 0.0 - - - - - - -
 
Date/Time
EST
Temp

°C
Wind Pressure Rain
since 9am
mm
Weather Cloud Vis
km
Sea
Height
m
Swell
Dir
 
Speed
knots
Gust
knots
hPa Trend Height
m
Period
s
Dir
18/11:30pm 6.1 S 1 2 1024.3 - 0.0 - - - - - - -
18/11:00pm 5.8 S 1 2 1024.4 - 0.0 - - - - - - -
18/10:30pm 4.9 S 1 2 1024.3 - 0.0 - - - - - - -
18/10:00pm 5.7 S 3 4 1024.5 - 0.0 - - - - - - -
18/09:30pm 5.9 S 3 3 1024.4 - 0.0 - - - - - - -
18/09:00pm 6.2 S 3 3 1024.5 - 0.0 - - - - - - -
18/08:30pm 6.3 S 3 4 1024.1 - 0.0 - - - - - - -
18/08:00pm 6.3 S 4 5 1024.1 - 0.0 - - - - - - -
18/07:30pm 6.7 S 4 5 1023.9 - 0.0 - - - - - - -
18/07:00pm 6.4 S 4 5 1023.8 - 0.0 - - - - - - -
18/06:30pm 8.0 S 3 3 1023.5 - 0.0 - - - - - - -
18/06:00pm 9.0 S 2 3 1023.5 - 0.0 - - - - - - -
18/05:30pm 9.6 S 1 1 1023.2 - 0.0 - - - - - - -
18/05:00pm 10.2 S 1 2 1023.1 - 0.0 - - - - - - -
18/04:30pm 10.8 S 2 3 1022.9 - 0.0 - - - - - - -
18/04:00pm 11.0 S 2 3 1023.0 - 0.0 - - - - - - -
18/03:30pm 11.4 S 2 3 1022.9 - 0.0 - - - - - - -
18/03:00pm 11.3 S 5 5 1023.0 - 0.0 - - - - - - -
18/02:30pm 11.3 S 5 6 1022.9 - 0.0 - - - - - - -
18/02:00pm 10.9 S 6 7 1023.0 - 0.0 - - - - - - -
18/01:30pm 10.6 S 5 6 1023.0 - 0.0 - - - - - - -
18/01:00pm 10.9 S 6 7 1023.3 - 0.0 - - - - - - -
18/12:30pm 10.9 S 5 6 1023.5 - 0.0 - - - - - - -
18/12:00pm 10.1 S 2 2 1023.9 - 0.0 - - - - - - -
18/11:30am 9.2 S 2 3 1024.2 - 0.0 - - - - - - -
18/11:00am 8.6 S 3 4 1024.6 - 0.0 - - - - - - -
18/10:30am 8.2 S 3 4 1024.5 - 0.0 - - - - - - -
18/10:00am 8.1 S 2 3 1024.7 - 0.0 - - - - - - -
18/09:30am 7.5 S 3 4 1024.7 - 0.0 - - - - - - -
18/09:00am 7.6 S 5 7 1024.9 - 0.0 - - - - - - -
18/08:30am 7.1 S 5 8 1024.7 - 0.0 - - - - - - -
18/08:00am 7.0 S 4 7 1024.7 - 0.0 - - - - - - -
18/07:30am 5.8 CALM 0 2 1024.3 - 0.0 - - - - - - -
18/07:00am 4.6 S 3 4 1024.2 - 0.0 - - - - - - -
18/06:30am 4.0 S 3 4 1023.7 - 0.0 - - - - - - -
18/06:00am 5.6 CALM 0 1 1023.5 - 0.0 - - - - - - -
18/05:30am 4.9 S 4 4 1023.2 - 0.0 - - - - - - -
18/05:00am 4.9 S 5 6 1023.2 - 0.0 - - - - - - -
18/04:30am 5.1 S 4 6 1022.9 - 0.0 - - - - - - -
18/04:00am 5.4 S 3 4 1022.8 - 0.0 - - - - - - -
18/03:30am 5.8 S 3 4 1022.7 - 0.0 - - - - - - -
18/03:00am 6.5 S 5 7 1022.9 - 0.0 - - - - - - -
18/02:30am 6.0 S 3 4 1023.2 - 0.0 - - - - - - -
18/02:00am 6.3 S 5 6 1023.3 - 0.0 - - - - - - -
18/01:30am 6.8 S 3 5 1023.3 - 0.0 - - - - - - -
18/01:00am 7.1 S 2 3 1023.3 - 0.0 - - - - - - -

Other Formats:

Comma delimited format used in spreadsheet applications
http://www.bom.gov.au/fwo/IDT60701/IDT60701.94951.axf

JavaScript Object Notation format (JSON) in row-major order
http://www.bom.gov.au/fwo/IDT60701/IDT60701.94951.json